| time (UTC) | temp F | wind direction | speed MPH | gust MPH | rain 1hr in | rain 24hr in | rain mn in | humidity % | barometer mb |
| 20260507161505 | 64 | 109 | 8.0 | 14.0 | 0.00 | 0.08 | 0.06 | 69 | 1015.7 |
| 20260507160005 | 63 | 79 | 8.0 | 18.0 | 0.00 | 0.08 | 0.06 | 70 | 1015.6 |
| 20260507154506 | 65 | 90 | 9.0 | 20.0 | 0.00 | 0.08 | 0.06 | 68 | 1015.4 |
| 20260507153005 | 64 | 77 | 12.0 | 22.0 | 0.00 | 0.08 | 0.06 | 68 | 1015.6 |
| 20260507151506 | 66 | 102 | 12.0 | 21.0 | 0.00 | 0.08 | 0.06 | 64 | 1015.4 |
| 20260507144505 | 66 | 107 | 13.0 | 24.0 | 0.00 | 0.08 | 0.06 | 65 | 1015.3 |
| 20260507143006 | 67 | 104 | 12.0 | 24.0 | 0.00 | 0.08 | 0.06 | 63 | 1015.4 |
| 20260507141505 | 66 | 117 | 11.0 | 23.0 | 0.00 | 0.08 | 0.06 | 65 | 1015.3 |
| 20260507140006 | 67 | 114 | 15.0 | 22.0 | 0.00 | 0.08 | 0.06 | 64 | 1015.4 |
| 20260507134505 | 67 | 99 | 14.0 | 24.0 | 0.00 | 0.08 | 0.06 | 68 | 1015.9 |
| 20260507133006 | 68 | 107 | 11.0 | 24.0 | 0.00 | 0.08 | 0.06 | 68 | 1015.8 |
| 20260507131505 | 68 | 111 | 17.0 | 23.0 | 0.00 | 0.08 | 0.06 | 67 | 1015.7 |
| 20260507130005 | 68 | 115 | 11.0 | 20.0 | 0.00 | 0.08 | 0.06 | 68 | 1015.8 |
| 20260507123005 | 68 | 106 | 12.0 | 20.0 | 0.00 | 0.08 | 0.06 | 66 | 1016.0 |
| 20260507121505 | 67 | 110 | 11.0 | 17.0 | 0.00 | 0.08 | 0.06 | 66 | 1015.8 |
| 20260507120006 | 67 | 102 | 13.0 | 18.0 | 0.00 | 0.08 | 0.06 | 68 | 1016.2 |
| 20260507114506 | 67 | 106 | 15.0 | 17.0 | 0.00 | 0.08 | 0.06 | 67 | 1016.1 |
| 20260507113006 | 67 | 117 | 11.0 | 16.0 | 0.00 | 0.08 | 0.06 | 69 | 1016.5 |
| 20260507111506 | 67 | 116 | 4.0 | 14.0 | 0.00 | 0.08 | 0.06 | 69 | 1016.5 |
| 20260507110006 | 67 | 101 | 6.0 | 15.0 | 0.00 | 0.08 | 0.06 | 67 | 1016.6 |
| 20260507104505 | 67 | 114 | 8.0 | 15.0 | 0.00 | 0.08 | 0.06 | 72 | 1016.7 |
| 20260507101505 | 64 | 125 | 8.0 | 13.0 | 0.00 | 0.08 | 0.06 | 72 | 1016.7 |
| 20260507100006 | 65 | 121 | 10.0 | 13.0 | 0.00 | 0.08 | 0.06 | 73 | 1017.1 |
| 20260507094506 | 65 | 122 | 2.0 | 11.0 | 0.00 | 0.08 | 0.06 | 70 | 1016.8 |
| 20260507093005 | 65 | 74 | 7.0 | 9.0 | 0.00 | 0.08 | 0.06 | 71 | 1016.8 |
| 20260507091504 | 63 | 76 | 5.0 | 9.0 | 0.00 | 0.08 | 0.06 | 73 | 1016.7 |
| 20260507090007 | 63 | 92 | 4.0 | 8.0 | 0.00 | 0.08 | 0.06 | 73 | 1016.9 |
| 20260507084505 | 63 | 60 | 3.0 | 6.0 | 0.00 | 0.08 | 0.06 | 74 | 1016.6 |
| 20260507081505 | 61 | 101 | 2.0 | 6.0 | 0.00 | 0.08 | 0.06 | 79 | 1016.8 |
| 20260507080006 | 60 | 135 | 1.0 | 4.0 | 0.00 | 0.08 | 0.06 | 80 | 1017.2 |
| 20260507073005 | 56 | 282 | 1.0 | 2.0 | 0.00 | 0.08 | 0.06 | 99 | 1017.1 |
| 20260507071505 | 54 | 282 | 1.0 | 2.0 | 0.00 | 0.08 | 0.06 | 99 | 1016.9 |
| 20260507064505 | 51 | 295 | 1.0 | 2.0 | 0.00 | 0.08 | 0.06 | 99 | 1016.8 |
| 20260507063005 | 50 | 289 | 0.0 | 2.0 | 0.00 | 0.08 | 0.06 | 99 | 1016.9 |
| 20260507060005 | 48 | 272 | 0.0 | 2.0 | 0.00 | 0.08 | 0.06 | 99 | 1016.5 |
| 20260507054505 | 47 | 287 | 2.0 | 4.0 | 0.00 | 0.08 | 0.06 | 99 | 1016.5 |
| 20260507053005 | 47 | 303 | 2.0 | 4.0 | 0.00 | 0.08 | 0.06 | 99 | 1016.5 |
| 20260507051505 | 47 | 327 | 1.0 | 4.0 | 0.00 | 0.08 | 0.06 | 99 | 1016.6 |
| 20260507050005 | 47 | 298 | 2.0 | 2.0 | 0.00 | 0.08 | 0.06 | 99 | 1016.2 |
| 20260507044505 | 46 | 305 | 1.0 | 4.0 | 0.00 | 0.08 | 0.06 | 99 | 1016.4 |
| 20260507043005 | 46 | 284 | 0.0 | 4.0 | 0.00 | 0.08 | 0.06 | 99 | 1016.4 |
| 20260507041504 | 46 | 270 | 0.0 | 2.0 | 0.00 | 0.08 | 0.06 | 99 | 1016.3 |
| 20260507040005 | 47 | 294 | 1.0 | 2.0 | 0.00 | 0.08 | 0.06 | 99 | 1016.5 |
| 20260507031504 | 47 | 293 | 0.0 | 2.0 | 0.00 | 0.08 | 0.06 | 99 | 1016.1 |
| 20260507030005 | 47 | 297 | 2.0 | 4.0 | 0.01 | 0.08 | 0.06 | 99 | 1016.4 |
| 20260507024505 | 48 | 303 | 1.0 | 4.0 | 0.01 | 0.08 | 0.06 | 99 | 1016.3 |
| 20260507023004 | 48 | 333 | 1.0 | 4.0 | 0.01 | 0.08 | 0.06 | 99 | 1016.5 |
| 20260507020004 | 49 | 337 | 2.0 | 4.0 | 0.00 | 0.07 | 0.05 | 99 | 1016.6 |
| 20260507014504 | 50 | 327 | 2.0 | 4.0 | 0.00 | 0.07 | 0.05 | 99 | 1016.7 |
| 20260507013005 | 50 | 342 | 2.0 | 4.0 | 0.00 | 0.07 | 0.05 | 99 | 1016.5 |
| 20260507011504 | 51 | 289 | 2.0 | 4.0 | 0.02 | 0.07 | 0.05 | 99 | 1016.9 |
| 20260507010005 | 51 | 270 | 0.0 | 2.0 | 0.04 | 0.07 | 0.05 | 99 | 1016.9 |
| 20260507004504 | 51 | 294 | 1.0 | 2.0 | 0.05 | 0.07 | 0.05 | 99 | 1017.1 |
| 20260507003005 | 51 | 340 | 1.0 | 2.0 | 0.05 | 0.07 | 0.05 | 99 | 1017.5 |
| 20260507001505 | 51 | 279 | 0.0 | 4.0 | 0.02 | 0.05 | 0.02 | 99 | 1017.4 |
| 20260506234505 | 51 | 293 | 2.0 | 4.0 | 0.00 | 0.02 | 0.00 | 99 | 1017.8 |
| 20260506233006 | 52 | 299 | 1.0 | 4.0 | 0.00 | 0.02 | 0.00 | 99 | 1017.5 |
| 20260506231504 | 52 | 286 | 1.0 | 2.0 | 0.00 | 0.02 | 0.00 | 99 | 1017.5 |
| 20260506230004 | 52 | 333 | 0.0 | 4.0 | 0.00 | 0.02 | 0.00 | 99 | 1017.5 |
| 20260506223004 | 52 | 301 | 2.0 | 2.0 | 0.00 | 0.02 | 0.00 | 99 | 1017.6 |
| 20260506221505 | 52 | 2 | 2.0 | 6.0 | 0.00 | 0.02 | 0.00 | 99 | 1017.7 |
| 20260506214504 | 52 | 56 | 0.0 | 2.0 | 0.00 | 0.02 | 0.02 | 99 | 1017.7 |
| 20260506211504 | 52 | 355 | 2.0 | 2.0 | 0.00 | 0.02 | 0.02 | 99 | 1017.7 |
| 20260506210004 | 53 | 350 | 1.0 | 4.0 | 0.00 | 0.02 | 0.02 | 99 | 1017.7 |
| 20260506204504 | 53 | 32 | 1.0 | 2.0 | 0.00 | 0.02 | 0.02 | 99 | 1017.5 |
| 20260506203004 | 53 | 290 | 0.0 | 2.0 | 0.00 | 0.02 | 0.02 | 99 | 1017.2 |
| 20260506201504 | 53 | 42 | 0.0 | 4.0 | 0.01 | 0.02 | 0.02 | 99 | 1016.7 |
| 20260506200004 | 53 | 302 | 1.0 | 2.0 | 0.02 | 0.02 | 0.02 | 99 | 1016.7 |
| 20260506194504 | 53 | 21 | 2.0 | 6.0 | 0.02 | 0.02 | 0.02 | 99 | 1016.6 |
| 20260506193004 | 54 | 349 | 2.0 | 4.0 | 0.02 | 0.02 | 0.02 | 97 | 1016.5 |
| 20260506191504 | 54 | 58 | 0.0 | 2.0 | 0.01 | 0.02 | 0.01 | 97 | 1016.6 |
| 20260506184504 | 55 | 75 | 1.0 | 2.0 | 0.00 | 0.02 | 0.00 | 93 | 1016.0 |
| 20260506181504 | 56 | 118 | 3.0 | 9.0 | 0.00 | 0.04 | 0.00 | 91 | 1015.8 |
| 20260506180005 | 56 | 139 | 8.0 | 11.0 | 0.00 | 0.04 | 0.00 | 89 | 1015.6 |
| 20260506174503 | 56 | 114 | 10.0 | 14.0 | 0.00 | 0.04 | 0.00 | 90 | 1015.3 |
| 20260506173004 | 56 | 123 | 11.0 | 15.0 | 0.00 | 0.04 | 0.00 | 88 | 1015.1 |
| 20260506171504 | 56 | 126 | 11.0 | 18.0 | 0.00 | 0.04 | 0.00 | 86 | 1014.9 |
| 20260506170004 | 56 | 129 | 10.0 | 18.0 | 0.00 | 0.04 | 0.00 | 86 | 1015.0 |
| 20260506164504 | 57 | 132 | 14.0 | 18.0 | 0.00 | 0.04 | 0.00 | 87 | 1014.6 |
| 20260506163004 | 57 | 126 | 10.0 | 14.0 | 0.00 | 0.04 | 0.00 | 86 | 1014.6 |